Data for 11/18/2005

Time Sea-Level Adjusted Pressure Absolute Pressure Temperature Relative Humidity Dew Point   
(mb) (inHg) (mb) (inHg) (C) (F) (%) (C) (F)
00:05 1028 30.36 857 25.31 -2.8 27 76 -6.4 20.5
00:10 1028 30.36 857 25.31 -2.5 27.4 75 -6.5 20.4
00:15 1028 30.36 857 25.31 -2.4 27.7 74 -6.4 20.5
00:20 1028 30.36 857 25.31 -2.2 28.1 72 -6.5 20.3
00:25 1028 30.36 857 25.31 -2 28.4 72 -6.4 20.5
00:30 1028 30.36 857 25.31 -2.4 27.7 75 -6.3 20.7
00:35 1028 30.36 857 25.31 -3 26.6 74 -7 19.5
00:40 1028 30.36 857 25.31 -3.3 26 75 -7.1 19.2
00:45 1028 30.36 857 25.31 -3.4 25.8 77 -6.8 19.7
00:50 1028 30.36 857 25.31 -3.5 25.7 78 -6.8 19.8
00:55 1028 30.36 857 25.31 -3.7 25.3 80 -6.7 20
01:00 1028 30.36 857 25.31 -3.5 25.7 79 -6.7 19.9
01:05 1028 30.36 857 25.31 -3 26.6 77 -6.5 20.2
01:10 1027 30.33 857 25.31 -2.8 26.9 77 -6.3 20.6
01:15 1028 30.36 857 25.31 -3.1 26.4 78 -6.4 20.4
01:20 1027 30.33 857 25.31 -3.6 25.5 79 -6.7 19.9
01:25 1027 30.33 857 25.31 -3.1 26.4 76 -6.7 20
01:30 1027 30.33 857 25.31 -2.9 26.8 76 -6.6 20.2
01:35 1027 30.33 856 25.28 -2.8 26.9 76 -6.4 20.4
01:40 1027 30.33 856 25.28 -2.9 26.8 78 -6.3 20.6
01:45 1027 30.33 856 25.28 -2.9 26.8 76 -6.5 20.3
01:50 1027 30.33 856 25.28 -2.6 27.3 76 -6.4 20.5
01:55 1027 30.33 856 25.28 -2.3 27.8 74 -6.4 20.4
02:00 1027 30.33 856 25.28 -2.1 28.3 74 -6.1 21.1
02:05 1027 30.33 856 25.28 -2.3 27.9 74 -6.3 20.6
02:10 1027 30.33 856 25.28 -2.1 28.3 73 -6.3 20.7
02:15 1027 30.33 856 25.28 -1.9 28.6 73 -6.2 20.8
02:20 1027 30.33 856 25.28 -1.8 28.7 73 -6.1 21
02:25 1027 30.33 856 25.28 -2 28.3 73 -6.2 20.8
02:30 1027 30.33 856 25.28 -2.3 27.9 75 -6.2 20.9
02:35 1027 30.33 856 25.28 -2.1 28.3 73 -6.2 20.8
02:40 1027 30.33 856 25.28 -1.8 28.8 73 -6 21.2
02:45 1027 30.33 856 25.28 -1.9 28.5 74 -6 21.1
02:50 1027 30.33 856 25.28 -2.2 28 75 -6.1 21
02:55 1027 30.33 856 25.28 -2.2 28 75 -6.1 21.1
03:00 1026 30.3 856 25.28 -2.4 27.6 76 -6.1 21
03:05 1026 30.3 856 25.28 -2.4 27.7 75 -6.2 20.8
03:10 1026 30.3 856 25.28 -2.5 27.4 77 -6.1 21
03:15 1026 30.3 855 25.25 -2.7 27.1 77 -6.2 20.9
03:20 1026 30.3 855 25.25 -2.5 27.5 76 -6.2 20.8
03:25 1026 30.3 855 25.25 -2.2 28 75 -6 21.1
03:30 1026 30.3 855 25.25 -2.3 27.9 75 -6.1 21
03:35 1026 30.3 855 25.25 -2.2 28 75 -6.1 21
03:40 1026 30.3 855 25.25 -2.1 28.2 74 -6.1 21
03:45 1026 30.3 855 25.25 -2 28.5 74 -6 21.2
03:50 1026 30.3 855 25.25 -1.8 28.7 73 -6.1 21.1
03:55 1026 30.3 855 25.25 -1.9 28.7 74 -5.9 21.4
04:00 1026 30.3 855 25.25 -2 28.4 74 -6 21.2
04:05 1026 30.3 855 25.25 -2 28.3 74 -6 21.2
04:10 1026 30.3 855 25.25 -2.1 28.2 74 -6.2 20.9
04:15 1026 30.3 855 25.25 -2.4 27.6 76 -6 21.1
04:20 1026 30.3 855 25.25 -2.7 27.1 76 -6.3 20.6
04:25 1026 30.3 855 25.25 -2.5 27.6 75 -6.4 20.6
04:30 1026 30.3 855 25.25 -2.2 28 74 -6.3 20.6
04:35 1026 30.3 855 25.25 -2.4 27.7 74 -6.4 20.5
04:40 1026 30.3 855 25.25 -2.6 27.4 75 -6.4 20.4
04:45 1026 30.3 855 25.25 -3 26.6 78 -6.3 20.6
04:50 1026 30.3 855 25.25 -3.2 26.3 78 -6.5 20.4
04:55 1026 30.3 855 25.25 -3.6 25.6 80 -6.6 20.2
05:00 1026 30.3 855 25.25 -3.7 25.3 80 -6.6 20.1
05:05 1026 30.3 855 25.25 -3.9 25 81 -6.7 19.9
05:10 1026 30.3 855 25.25 -3.6 25.5 79 -6.8 19.8
05:15 1026 30.3 855 25.25 -3.8 25.2 79 -6.9 19.6
05:20 1026 30.3 855 25.25 -4.8 23.4 82 -7.3 18.8
05:25 1026 30.3 855 25.25 -4.8 23.4 83 -7.2 19
05:30 1026 30.3 855 25.25 -4.2 24.4 81 -7 19.4
05:35 1026 30.3 855 25.25 -4.2 24.4 81 -7 19.4
05:40 1026 30.3 855 25.25 -4 24.7 80 -7.1 19.3
05:45 1026 30.3 855 25.25 -3.7 25.4 78 -6.9 19.5
05:50 1025 30.27 855 25.25 -3.8 25.2 78 -7 19.4
05:55 1025 30.27 855 25.25 -3.7 25.3 79 -6.8 19.7
06:00 1025 30.27 855 25.25 -3.8 25.2 79 -6.9 19.7
06:05 1025 30.27 855 25.25 -3.6 25.6 78 -6.8 19.7
06:10 1026 30.3 855 25.25 -3.5 25.7 78 -6.9 19.7
06:15 1025 30.27 855 25.25 -3.3 26 77 -6.8 19.7
06:20 1025 30.27 855 25.25 -3 26.7 76 -6.7 20
06:25 1025 30.27 855 25.25 -3.3 26 78 -6.6 20.1
06:30 1025 30.27 854 25.22 -3 26.6 76 -6.7 20
06:35 1025 30.27 855 25.25 -3.1 26.4 78 -6.4 20.5
06:40 1026 30.3 855 25.25 -3.6 25.4 79 -6.7 19.9
06:45 1025 30.27 855 25.25 -3.6 25.5 79 -6.7 19.9
06:50 1025 30.27 855 25.25 -3.7 25.3 78 -7 19.5
06:55 1025 30.27 855 25.25 -3.1 26.4 77 -6.5 20.2
07:00 1025 30.27 855 25.25 -3.1 26.4 77 -6.5 20.2
07:05 1025 30.27 855 25.25 -3.6 25.5 79 -6.8 19.8
07:10 1025 30.27 854 25.22 -4 24.7 80 -7 19.3
07:15 1025 30.27 854 25.22 -3.3 26.1 73 -7.5 18.5
07:20 1025 30.27 854 25.22 -2 28.4 68 -7.2 19
07:25 1025 30.27 854 25.22 -1.7 29 67 -7 19.5
07:30 1025 30.27 854 25.22 -1.6 29.2 68 -6.7 19.9
07:35 1025 30.27 854 25.22 -1.9 28.6 69 -6.9 19.6
07:40 1025 30.27 854 25.22 -2 28.5 68 -7 19.3
07:45 1025 30.27 854 25.22 -2 28.4 71 -6.5 20.2
07:50 1025 30.27 854 25.22 -3 26.6 75 -6.8 19.8
07:55 1025 30.27 854 25.22 -3.1 26.4 76 -6.8 19.7
08:00 1024 30.24 854 25.22 -2.9 26.8 74 -6.8 19.7
08:05 1024 30.24 854 25.22 -2.7 27.2 72 -7 19.5
08:10 1024 30.24 853 25.19 -2.4 27.8 73 -6.6 20.1
08:15 1024 30.24 853 25.19 -2.8 26.9 76 -6.5 20.3
08:20 1024 30.24 853 25.19 -2.7 27.2 73 -6.9 19.5
08:25 1024 30.24 853 25.19 -2.2 28 70 -7 19.5
08:30 1024 30.24 853 25.19 -1.8 28.7 68 -7 19.4
08:35 1024 30.24 853 25.19 -1.5 29.3 66 -7 19.3
08:40 1024 30.24 853 25.19 -1.6 29.1 66 -7.2 19
08:45 1024 30.24 853 25.19 -1.3 29.7 65 -7.1 19.2
08:50 1024 30.24 853 25.19 -1 30.2 65 -6.8 19.7
08:55 1024 30.24 853 25.19 -0.9 30.3 66 -6.5 20.2
09:00 1024 30.24 853 25.19 -1.6 29.2 68 -6.7 19.9
09:05 1023 30.21 853 25.19 -1.8 28.8 68 -6.8 19.7
09:10 1024 30.24 853 25.19 -1.6 29.1 66 -7.2 19.1
09:15 1023 30.21 853 25.19 -1.2 29.9 68 -6.3 20.7
09:20 1023 30.21 853 25.19 -1.1 30 66 -6.6 20.1
09:25 1023 30.21 853 25.19 -1 30.2 66 -6.6 20.1
09:30 1023 30.21 852 25.16 -0.8 30.6 63 -7 19.5
09:35 1023 30.21 852 25.16 0.3 32.5 59 -6.9 19.7
09:40 1023 30.21 852 25.16 0.9 33.6 58 -6.5 20.4
09:45 1023 30.21 852 25.16 1.1 33.9 58 -6.3 20.7
09:50 1023 30.21 852 25.16 0.7 33.3 58 -6.6 20.2
09:55 1023 30.21 852 25.16 0.8 33.5 58 -6.5 20.2
10:00 1023 30.21 852 25.16 1.6 34.8 50 -7.7 18.1
10:05 1023 30.21 852 25.16 2.1 35.8 51 -6.9 19.6
10:10 1023 30.21 852 25.16 2.4 36.4 50 -7 19.4
10:15 1023 30.21 852 25.16 2.9 37.1 56 -5.1 22.8
10:20 1023 30.21 852 25.16 2.9 37.2 54 -5.6 22
10:25 1023 30.21 852 25.16 2.9 37.3 50 -6.4 20.4
10:30 1023 30.21 852 25.16 3.1 37.6 50 -6.5 20.4
10:35 1023 30.21 852 25.16 3.6 38.5 51 -5.6 22
10:40 1023 30.21 852 25.16 4.3 39.7 49 -5.6 22
10:45 1023 30.21 852 25.16 4.1 39.4 52 -4.8 23.3
10:50 1023 30.21 852 25.16 4.3 39.8 47 -5.9 21.3
10:55 1023 30.21 852 25.16 3.9 39 52 -5.1 22.8
11:00 1023 30.21 852 25.16 4.1 39.5 50 -5.4 22.3
11:05 1023 30.21 852 25.16 4.2 39.5 50 -5.4 22.3
11:10 1023 30.21 852 25.16 4 39.2 50 -5.6 21.9
11:15 1022 30.18 852 25.16 4.2 39.6 49 -5.6 22
11:20 1022 30.18 852 25.16 3.9 39 51 -5.3 22.5
11:25 1022 30.18 852 25.16 3.5 38.3 50 -6 21.3
11:30 1022 30.18 852 25.16 3.6 38.5 49 -6 21.2
11:35 1022 30.18 852 25.16 3.6 38.4 50 -6 21.2
11:40 1022 30.18 852 25.16 3.7 38.6 51 -5.6 22
11:45 1022 30.18 852 25.16 4 39.2 50 -5.5 22.2
11:50 1023 30.21 852 25.16 4.2 39.6 50 -5.2 22.6
11:55 1023 30.21 852 25.16 4.3 39.8 53 -4.5 23.8
12:00 1023 30.21 852 25.16 4.3 39.8 54 -4 24.7
12:05 1023 30.21 852 25.16 4.1 39.3 56 -3.9 24.9
12:10 1023 30.21 852 25.16 3.7 38.6 59 -3.5 25.7
12:15 1023 30.21 852 25.16 4.2 39.5 57 -3.6 25.6
12:20 1023 30.21 852 25.16 4.3 39.8 59 -2.9 26.7
12:25 1023 30.21 852 25.16 3.5 38.3 65 -2.6 27.4
12:30 1022 30.18 852 25.16 3.3 37.9 55 -4.9 23.2
12:35 1022 30.18 852 25.16 3.4 38 55 -4.9 23.2
12:40 1022 30.18 851 25.13 3.5 38.3 58 -4 24.7
12:45 1022 30.18 851 25.13 3.6 38.5 50 -6 21.2
12:50 1022 30.18 851 25.13 3.8 38.8 49 -5.9 21.3
12:55 1022 30.18 851 25.13 3.8 38.9 55 -4.3 24.3
13:00 1022 30.18 851 25.13 4 39.1 51 -5.4 22.4
13:05 1022 30.18 851 25.13 4.1 39.5 48 -5.9 21.4
13:10 1022 30.18 851 25.13 4.5 40.2 48 -5.6 21.9
13:15 1022 30.18 851 25.13 5 40.9 49 -5 23
13:20 1022 30.18 851 25.13 4.8 40.7 47 -5.6 22
13:25 1021 30.15 851 25.13 4.8 40.6 46 -5.8 21.6
13:30 1021 30.15 850 25.1 5 41 39 -7.7 18.1
13:35 1021 30.15 850 25.1 5.1 41.2 43 -6.4 20.4
13:40 1021 30.15 850 25.1 5.2 41.3 45 -5.7 21.7
13:45 1021 30.15 850 25.1 5.5 41.9 41 -6.7 19.9
13:50 1021 30.15 850 25.1 5.6 42.1 41 -6.6 20.1
13:55 1021 30.15 850 25.1 5.6 42.1 40 -6.8 19.7
14:00 1021 30.15 850 25.1 5.6 42 41 -6.7 19.9
14:05 1021 30.15 850 25.1 5.6 42.1 41 -6.7 19.9
14:10 1021 30.15 850 25.1 5.7 42.2 42 -6.1 21
14:15 1021 30.15 850 25.1 5.5 41.9 43 -6.2 20.8
14:20 1021 30.15 850 25.1 5.5 41.9 43 -6.3 20.7
14:25 1021 30.15 851 25.13 5.5 41.9 42 -6.5 20.2
14:30 1021 30.15 851 25.13 5.4 41.7 43 -6.3 20.6
14:35 1021 30.15 851 25.13 5.4 41.7 44 -5.9 21.3
14:40 1021 30.15 851 25.13 5.4 41.7 44 -6 21.3
14:45 1021 30.15 851 25.13 5.4 41.7 44 -5.9 21.3
14:50 1021 30.15 850 25.1 5.3 41.5 47 -5.2 22.7
14:55 1021 30.15 850 25.1 5.2 41.4 47 -5.3 22.4
15:00 1021 30.15 851 25.13 5.2 41.3 49 -4.8 23.4
15:05 1021 30.15 851 25.13 5.2 41.4 49 -4.7 23.6
15:10 1021 30.15 851 25.13 5.3 41.5 49 -4.6 23.7
15:15 1021 30.15 851 25.13 5.2 41.4 49 -4.6 23.8
15:20 1021 30.15 851 25.13 5.1 41.1 48 -5 23
15:25 1022 30.18 851 25.13 4.9 40.9 48 -5.2 22.7
15:30 1022 30.18 851 25.13 4.9 40.8 47 -5.5 22
15:35 1022 30.18 851 25.13 5.1 41.1 46 -5.6 22
15:40 1022 30.18 851 25.13 5.4 41.8 45 -5.7 21.7
15:45 1022 30.18 851 25.13 5.9 42.5 43 -5.7 21.7
15:50 1022 30.18 851 25.13 6.1 43 42 -6 21.3
15:55 1022 30.18 851 25.13 6.4 43.6 42 -5.6 21.9
16:00 1022 30.18 851 25.13 6.6 43.9 43 -5 23
16:05 1022 30.18 852 25.16 6 42.8 51 -3.4 25.8
16:10 1022 30.18 852 25.16 4.7 40.4 52 -4.2 24.4
16:15 1023 30.21 852 25.16 5.1 41.1 48 -5.1 22.8
16:20 1023 30.21 852 25.16 5.3 41.6 49 -4.6 23.7
16:25 1023 30.21 852 25.16 5.2 41.3 49 -4.7 23.6
16:30 1023 30.21 852 25.16 5.2 41.4 48 -4.9 23.2
16:35 1023 30.21 852 25.16 5.4 41.8 48 -4.6 23.8
16:40 1023 30.21 852 25.16 5.5 41.9 48 -4.6 23.8
16:45 1023 30.21 852 25.16 5.5 41.9 48 -4.5 23.8
16:50 1023 30.21 852 25.16 5.6 42.1 49 -4.4 24.1
16:55 1023 30.21 852 25.16 5.7 42.2 48 -4.4 24
17:00 1023 30.21 852 25.16 5.7 42.2 48 -4.5 23.9
17:05 1023 30.21 853 25.19 5.8 42.4 46 -4.8 23.3
17:10 1023 30.21 853 25.19 5.9 42.6 46 -4.9 23.2
17:15 1023 30.21 853 25.19 6 42.8 47 -4.5 23.9
17:20 1024 30.24 853 25.19 6.1 42.9 46 -4.6 23.8
17:25 1024 30.24 853 25.19 6.2 43.1 45 -4.8 23.3
17:30 1024 30.24 853 25.19 6.4 43.5 45 -4.5 23.8
17:35 1024 30.24 853 25.19 6.3 43.3 46 -4.4 24
17:40 1024 30.24 853 25.19 6.2 43.1 47 -4.4 24.1
17:45 1024 30.24 853 25.19 6.2 43.2 46 -4.7 23.6
17:50 1024 30.24 854 25.22 6.2 43.1 48 -4 24.8
17:55 1025 30.27 854 25.22 5.7 42.2 51 -3.7 25.3
18:00 1025 30.27 854 25.22 5.6 42.1 51 -3.7 25.3
18:05 1025 30.27 854 25.22 5.5 41.9 53 -3.3 26
18:10 1025 30.27 854 25.22 5.4 41.7 52 -3.6 25.6
18:15 1025 30.27 854 25.22 5.5 41.8 49 -4.3 24.2
18:20 1025 30.27 854 25.22 5.7 42.2 48 -4.5 23.9
18:25 1025 30.27 854 25.22 5.9 42.6 47 -4.4 24
18:30 1025 30.27 854 25.22 6.1 42.9 49 -3.7 25.3
18:35 1025 30.27 854 25.22 6.2 43.1 49 -3.6 25.5
18:40 1025 30.27 854 25.22 6.2 43.1 51 -3.1 26.4
18:45 1025 30.27 854 25.22 6.2 43.1 52 -2.9 26.7
18:50 1025 30.27 854 25.22 6.2 43.1 53 -2.8 27
18:55 1025 30.27 854 25.22 6.1 42.9 53 -2.7 27.1
19:00 1025 30.27 854 25.22 6 42.9 54 -2.6 27.3
19:05 1025 30.27 854 25.22 6 42.9 54 -2.5 27.5
19:10 1025 30.27 855 25.25 6 42.9 55 -2.4 27.7
19:15 1025 30.27 855 25.25 5.9 42.7 55 -2.4 27.7
19:20 1025 30.27 855 25.25 5.9 42.6 55 -2.4 27.8
19:25 1025 30.27 855 25.25 5.6 42.1 56 -2.4 27.7
19:30 1026 30.3 855 25.25 5.4 41.7 58 -2.2 28
19:35 1026 30.3 855 25.25 4.6 40.3 62 -1.9 28.5
19:40 1026 30.3 855 25.25 4.3 39.7 61 -2.5 27.5
19:45 1026 30.3 855 25.25 4.4 39.9 61 -2.5 27.5
19:50 1026 30.3 855 25.25 4.8 40.7 58 -2.8 26.9
19:55 1026 30.3 855 25.25 5.1 41.1 58 -2.6 27.3
20:00 1026 30.3 856 25.28 4.8 40.7 59 -2.4 27.7
20:05 1026 30.3 856 25.28 4.5 40.2 61 -2.3 27.8
20:10 1026 30.3 856 25.28 4.5 40.2 61 -2.3 27.9
20:15 1026 30.3 856 25.28 4.4 39.9 62 -2.3 27.9
20:20 1026 30.3 856 25.28 4.4 39.9 63 -2.1 28.2
20:25 1026 30.3 856 25.28 4.3 39.7 64 -2 28.4
20:30 1027 30.33 856 25.28 4.5 40.1 62 -2.1 28.3
20:35 1027 30.33 856 25.28 4.3 39.7 66 -1.6 29.1
20:40 1027 30.33 856 25.28 4 39.3 66 -1.7 28.9
20:45 1027 30.33 856 25.28 4 39.2 66 -1.7 28.9
20:50 1027 30.33 856 25.28 4 39.3 66 -1.7 28.9
20:55 1027 30.33 856 25.28 4.2 39.5 65 -1.9 28.6
21:00 1027 30.33 856 25.28 4.5 40.1 64 -1.8 28.8
21:05 1027 30.33 856 25.28 4.7 40.5 62 -1.9 28.5
21:10 1027 30.33 856 25.28 4.8 40.7 62 -1.8 28.7
21:15 1027 30.33 856 25.28 4.8 40.7 62 -1.9 28.6
21:20 1027 30.33 856 25.28 4.8 40.7 62 -1.8 28.8
21:25 1027 30.33 856 25.28 4.6 40.3 64 -1.6 29.1
21:30 1027 30.33 856 25.28 4.3 39.7 65 -1.7 29
21:35 1027 30.33 856 25.28 4.2 39.6 65 -1.8 28.8
21:40 1027 30.33 856 25.28 4.2 39.6 64 -1.9 28.6
21:45 1027 30.33 856 25.28 4.3 39.8 63 -2 28.4
21:50 1027 30.33 856 25.28 4.4 39.8 64 -1.9 28.6
21:55 1027 30.33 856 25.28 4.3 39.7 65 -1.7 28.9
22:00 1027 30.33 857 25.31 4.2 39.5 66 -1.6 29.2
22:05 1027 30.33 857 25.31 3.9 39.1 67 -1.6 29.2
22:10 1027 30.33 857 25.31 3.7 38.7 68 -1.6 29.2
22:15 1027 30.33 857 25.31 3.6 38.5 68 -1.6 29.1
22:20 1027 30.33 857 25.31 3.4 38.2 70 -1.5 29.3
22:25 1028 30.36 857 25.31 3.4 38.1 70 -1.5 29.2
22:30 1028 30.36 857 25.31 3.5 38.4 70 -1.4 29.5
22:35 1028 30.36 857 25.31 3.6 38.5 69 -1.6 29.1
22:40 1028 30.36 857 25.31 3.7 38.7 69 -1.4 29.5
22:45 1028 30.36 857 25.31 3.7 38.6 69 -1.5 29.3
22:50 1028 30.36 857 25.31 3.8 38.8 67 -1.8 28.8
22:55 1028 30.36 857 25.31 4 39.2 67 -1.6 29
23:00 1028 30.36 857 25.31 4 39.3 66 -1.7 29
23:05 1028 30.36 857 25.31 4.1 39.3 66 -1.7 29
23:10 1028 30.36 857 25.31 4.1 39.4 66 -1.7 28.9
23:15 1028 30.36 857 25.31 4.1 39.4 66 -1.7 28.9
23:20 1027 30.33 857 25.31 4.2 39.5 66 -1.6 29.2
23:25 1027 30.33 857 25.31 4.1 39.4 65 -1.9 28.6
23:30 1027 30.33 857 25.31 4.2 39.5 65 -1.8 28.7
23:35 1028 30.36 857 25.31 4.1 39.4 66 -1.6 29.1
23:40 1028 30.36 857 25.31 3.9 39.1 68 -1.5 29.4
23:45 1028 30.36 857 25.31 3.6 38.5 70 -1.4 29.5
23:50 1028 30.36 857 25.31 3.3 37.9 70 -1.7 28.9
23:55 1028 30.36 857 25.31 3.4 38.1 70 -1.6 29.1
24:00 1028 30.36 857 25.31 3.3 38 70 -1.6 29.2